Time;durP1;ratioP1;P1;durP2;ratioP2;P2;SDS_P1;SDS_P2;PMS_P1;PMS_P2;Temp;Humidity;BMP_temperature;BMP_pressure;BME280_temperature;BME280_humidity;BME280_pressure;Samples;Min_cycle;Max_cycle;Signal;HPM_P1;HPM_P2
2021/07/05 00:01:40;;;;;;;1.20;1.10;;;16.50;98.00;;;;;;5112664;28;20490;-69
2021/07/05 00:04:10;;;;;;;1.20;1.10;;;16.50;98.00;;;;;;5112884;28;20462;-69
2021/07/05 00:06:37;;;;;;;1.20;1.13;;;16.40;98.00;;;;;;5112852;28;20478;-70
2021/07/05 00:11:52;;;;;;;1.20;1.10;;;16.40;98.00;;;;;;5112275;28;20462;-69
2021/07/05 00:14:26;;;;;;;1.30;1.00;;;16.40;98.00;;;;;;5112861;28;20447;-71
2021/07/05 00:16:53;;;;;;;1.73;1.27;;;16.40;98.00;;;;;;5111722;28;20457;-71
2021/07/05 00:19:20;;;;;;;1.20;1.10;;;16.50;98.00;;;;;;5112903;28;20511;-70
2021/07/05 00:21:48;;;;;;;2.30;1.20;;;16.50;98.00;;;;;;5112341;28;20487;-70
2021/07/05 00:24:15;;;;;;;1.20;1.00;;;16.60;98.00;;;;;;5112468;28;20459;-70
2021/07/05 00:26:42;;;;;;;1.93;1.10;;;16.60;98.00;;;;;;5112323;28;21023;-69
2021/07/05 00:29:09;;;;;;;1.20;1.00;;;16.70;98.00;;;;;;5112399;28;20805;-71
2021/07/05 00:31:37;;;;;;;1.20;1.10;;;16.60;98.00;;;;;;5112074;28;20519;-69
2021/07/05 00:34:04;;;;;;;1.40;1.10;;;16.70;98.00;;;;;;5112285;28;20463;-69
2021/07/05 00:36:34;;;;;;;1.20;1.10;;;16.80;98.00;;;;;;5112462;28;20486;-70
2021/07/05 00:39:01;;;;;;;1.20;1.00;;;16.80;98.00;;;;;;5112285;28;21090;-70
2021/07/05 00:41:29;;;;;;;1.20;1.00;;;16.80;98.00;;;;;;5111872;28;20487;-70
2021/07/05 00:43:56;;;;;;;1.20;1.10;;;16.80;98.00;;;;;;5111735;28;20462;-70
2021/07/05 00:46:24;;;;;;;1.20;1.00;;;16.90;98.00;;;;;;5112262;28;20779;-70
2021/07/05 00:48:52;;;;;;;1.67;1.20;;;16.90;98.00;;;;;;5112264;28;20504;-71
2021/07/05 00:51:20;;;;;;;1.20;1.00;;;16.90;98.00;;;;;;5111907;28;20512;-69
2021/07/05 00:53:48;;;;;;;1.20;1.00;;;16.90;98.00;;;;;;5112088;28;20548;-70
2021/07/05 00:56:15;;;;;;;1.20;1.00;;;17.00;98.00;;;;;;5111813;28;20455;-69
2021/07/05 00:58:43;;;;;;;1.20;1.00;;;16.90;98.00;;;;;;5112005;28;20447;-69
2021/07/05 01:01:10;;;;;;;1.20;1.17;;;16.70;98.00;;;;;;5111545;28;20478;-70
2021/07/05 01:03:40;;;;;;;1.40;1.10;;;16.80;98.00;;;;;;5110572;28;20519;-69
2021/07/05 01:06:08;;;;;;;1.20;1.00;;;16.80;98.00;;;;;;5094070;28;20461;-71
2021/07/05 01:08:35;;;;;;;1.20;1.00;;;16.80;98.00;;;;;;5111748;28;20466;-69
2021/07/05 01:11:03;;;;;;;1.20;1.07;;;16.80;98.00;;;;;;5111699;28;20451;-70
2021/07/05 01:13:30;;;;;;;1.50;1.10;;;16.90;98.00;;;;;;5111702;28;20466;-70
2021/07/05 01:15:57;;;;;;;1.20;1.07;;;16.90;98.00;;;;;;5112009;28;20516;-70
2021/07/05 01:18:25;;;;;;;1.30;1.20;;;17.00;98.00;;;;;;5110427;28;20463;-69
2021/07/05 01:20:52;;;;;;;1.20;1.03;;;16.90;98.00;;;;;;5111396;28;21217;-70
2021/07/05 01:23:21;;;;;;;1.97;1.27;;;16.90;98.00;;;;;;5111487;28;20476;-70
2021/07/05 01:25:48;;;;;;;1.30;1.10;;;16.80;98.00;;;;;;5111923;28;20467;-69
2021/07/05 01:28:15;;;;;;;1.20;1.10;;;16.70;98.00;;;;;;5111688;28;20516;-69
2021/07/05 01:30:43;;;;;;;1.20;1.10;;;16.70;98.00;;;;;;5111739;28;20451;-70
2021/07/05 01:33:11;;;;;;;1.20;1.10;;;16.70;98.00;;;;;;5111874;28;20459;-70
2021/07/05 01:35:39;;;;;;;1.20;1.10;;;16.90;98.00;;;;;;5111791;28;20443;-69
2021/07/05 01:38:10;;;;;;;1.20;1.00;;;17.00;98.00;;;;;;5111359;28;20459;-69
2021/07/05 01:40:54;;;;;;;1.20;1.10;;;17.10;98.00;;;;;;5111452;28;20850;-70
2021/07/05 01:43:22;;;;;;;1.40;1.20;;;16.90;98.00;;;;;;5093431;28;20797;-69
2021/07/05 01:45:53;;;;;;;1.27;1.10;;;16.70;98.00;;;;;;5111494;28;20499;-69
2021/07/05 01:48:20;;;;;;;1.20;1.00;;;16.60;98.00;;;;;;5094067;28;20459;-69
2021/07/05 01:50:48;;;;;;;1.20;1.00;;;16.60;98.00;;;;;;5111250;28;20451;-70
2021/07/05 01:53:16;;;;;;;1.20;1.10;;;16.60;98.00;;;;;;5111149;28;20466;-71
2021/07/05 01:55:45;;;;;;;1.30;1.10;;;16.60;98.00;;;;;;5111524;28;20529;-71
2021/07/05 01:58:12;;;;;;;1.20;1.00;;;16.40;98.00;;;;;;5115322;28;20462;-69
2021/07/05 02:00:41;;;;;;;1.20;1.00;;;16.40;98.00;;;;;;5114779;28;20487;-69
2021/07/05 02:03:08;;;;;;;1.20;1.20;;;16.50;98.00;;;;;;5115141;28;20455;-70
2021/07/05 02:05:35;;;;;;;1.20;1.10;;;16.40;98.00;;;;;;5114180;28;20498;-69
2021/07/05 02:08:03;;;;;;;1.20;1.00;;;16.40;98.00;;;;;;5113690;28;20459;-69
2021/07/05 02:10:34;;;;;;;1.30;1.20;;;16.40;98.00;;;;;;5113703;28;20973;-69
2021/07/05 02:13:05;;;;;;;1.20;1.00;;;16.50;98.00;;;;;;5114926;28;20463;-70
2021/07/05 02:15:33;;;;;;;1.20;1.00;;;16.50;98.00;;;;;;5114996;28;20772;-69
2021/07/05 02:18:00;;;;;;;1.20;1.07;;;16.60;98.00;;;;;;5114788;28;20458;-71
2021/07/05 02:20:28;;;;;;;1.20;1.00;;;16.70;98.00;;;;;;5114588;28;20470;-71
2021/07/05 02:22:58;;;;;;;1.20;1.00;;;16.70;98.00;;;;;;5114417;28;20463;-70
2021/07/05 02:25:27;;;;;;;1.30;1.30;;;16.80;98.00;;;;;;5114595;28;20516;-69
2021/07/05 02:27:55;;;;;;;1.20;1.10;;;16.60;98.00;;;;;;5113878;28;20493;-69
2021/07/05 02:30:25;;;;;;;1.63;1.10;;;16.50;98.00;;;;;;5114039;28;20467;-68
2021/07/05 02:32:53;;;;;;;1.20;1.00;;;16.50;98.00;;;;;;5114084;28;20457;-70
2021/07/05 02:35:22;;;;;;;1.20;1.00;;;16.40;98.00;;;;;;5113981;28;20512;-70
2021/07/05 02:37:50;;;;;;;1.40;1.10;;;16.60;98.00;;;;;;5114543;28;20455;-71
2021/07/05 02:40:20;;;;;;;1.20;1.00;;;16.60;98.00;;;;;;5114413;28;20475;-69
2021/07/05 02:42:48;;;;;;;1.20;1.00;;;16.60;98.00;;;;;;5114306;28;20485;-70
2021/07/05 02:45:17;;;;;;;1.20;1.07;;;16.50;98.00;;;;;;5114635;28;20873;-69
2021/07/05 02:47:48;;;;;;;1.30;1.10;;;16.30;98.00;;;;;;5113396;28;20443;-70
2021/07/05 02:50:17;;;;;;;1.30;1.10;;;16.30;98.00;;;;;;5113215;28;20447;-71
2021/07/05 02:52:44;;;;;;;1.20;1.00;;;16.30;98.00;;;;;;5114454;28;20459;-69
2021/07/05 02:55:14;;;;;;;1.20;1.10;;;16.40;98.00;;;;;;5114641;28;21015;-70
2021/07/05 02:57:44;;;;;;;1.20;0.90;;;16.30;98.00;;;;;;5114436;28;20456;-71
2021/07/05 03:00:15;;;;;;;1.20;1.00;;;16.30;98.00;;;;;;5114261;28;20866;-71
2021/07/05 03:02:44;;;;;;;1.20;1.07;;;16.20;98.00;;;;;;5112332;28;20475;-68
2021/07/05 03:05:14;;;;;;;1.20;1.00;;;16.20;98.00;;;;;;5114159;28;20451;-70
2021/07/05 03:07:41;;;;;;;1.20;1.00;;;16.10;98.00;;;;;;5113844;28;20459;-69
2021/07/05 03:10:11;;;;;;;2.40;1.20;;;16.00;98.00;;;;;;5114001;28;20536;-68
2021/07/05 03:12:38;;;;;;;1.20;1.00;;;16.10;98.00;;;;;;5113714;28;20853;-69
2021/07/05 03:15:08;;;;;;;1.20;1.00;;;16.30;98.00;;;;;;5114022;28;20459;-69
2021/07/05 03:17:35;;;;;;;1.20;1.03;;;16.10;98.00;;;;;;5113565;28;20515;-70
2021/07/05 03:20:04;;;;;;;1.20;1.10;;;16.00;98.00;;;;;;5113448;28;20873;-71
2021/07/05 03:22:33;;;;;;;1.20;1.00;;;16.00;98.00;;;;;;5113458;28;20483;-69
2021/07/05 03:25:00;;;;;;;1.20;1.03;;;16.10;98.00;;;;;;5113760;28;20451;-70
2021/07/05 03:27:28;;;;;;;1.20;1.10;;;16.10;98.00;;;;;;5113442;28;20508;-72
2021/07/05 03:29:57;;;;;;;1.20;1.10;;;16.10;98.00;;;;;;5112217;28;20937;-70
2021/07/05 03:32:24;;;;;;;1.20;1.00;;;16.00;98.00;;;;;;5113268;28;20455;-69
2021/07/05 03:34:52;;;;;;;1.20;1.10;;;15.90;98.00;;;;;;5113583;28;20515;-71
2021/07/05 03:37:19;;;;;;;1.30;1.10;;;16.10;98.00;;;;;;5113357;28;20507;-68
2021/07/05 03:39:47;;;;;;;1.50;1.30;;;16.10;98.00;;;;;;5113412;28;20478;-70
2021/07/05 03:42:14;;;;;;;1.20;1.10;;;16.20;98.00;;;;;;5113085;28;20551;-69
2021/07/05 03:44:41;;;;;;;1.20;1.00;;;16.20;98.00;;;;;;5113328;28;20527;-70
2021/07/05 03:47:09;;;;;;;1.20;1.10;;;16.30;98.00;;;;;;5113215;28;20507;-70
2021/07/05 03:49:42;;;;;;;1.20;1.00;;;16.20;98.00;;;;;;5113430;28;20982;-69
2021/07/05 03:52:10;;;;;;;1.60;1.60;;;16.20;98.00;;;;;;5112746;28;20971;-70
2021/07/05 03:54:37;;;;;;;1.20;1.00;;;16.20;98.00;;;;;;5113281;28;20443;-70
2021/07/05 03:57:06;;;;;;;1.30;1.20;;;16.40;98.00;;;;;;5113303;28;20454;-70
2021/07/05 03:59:48;;;;;;;1.40;1.10;;;16.50;98.00;;;;;;5113277;28;20493;-69
2021/07/05 04:02:16;;;;;;;1.20;1.10;;;16.50;98.00;;;;;;5112671;28;20548;-71
2021/07/05 04:04:43;;;;;;;1.30;1.10;;;16.50;98.00;;;;;;5113141;28;20925;-70
2021/07/05 04:07:10;;;;;;;1.20;1.00;;;16.50;98.00;;;;;;5113059;28;20467;-70
2021/07/05 04:09:37;;;;;;;1.20;1.00;;;16.50;98.00;;;;;;5112729;28;20516;-70
2021/07/05 04:12:06;;;;;;;1.53;1.30;;;16.60;98.00;;;;;;5112843;28;20524;-69
2021/07/05 04:14:33;;;;;;;1.30;1.13;;;16.60;98.00;;;;;;5112831;28;20524;-69
2021/07/05 04:17:00;;;;;;;1.30;1.10;;;16.70;98.00;;;;;;5112849;28;20498;-69
2021/07/05 04:19:27;;;;;;;1.43;1.10;;;16.90;98.00;;;;;;5094272;28;21010;-69
2021/07/05 04:22:01;;;;;;;1.20;1.10;;;16.80;98.00;;;;;;5111875;28;20483;-70
2021/07/05 04:24:28;;;;;;;1.30;1.03;;;16.80;98.00;;;;;;5112422;28;20462;-69
2021/07/05 04:26:56;;;;;;;1.20;1.00;;;16.70;98.00;;;;;;5094707;28;20515;-70
2021/07/05 04:29:24;;;;;;;1.20;1.10;;;16.70;98.00;;;;;;5112380;28;20508;-69
2021/07/05 04:31:51;;;;;;;1.20;1.10;;;16.70;98.00;;;;;;5112048;28;20516;-69
2021/07/05 04:34:18;;;;;;;1.20;1.00;;;16.80;98.00;;;;;;5112065;28;20540;-69
2021/07/05 04:36:45;;;;;;;1.20;1.03;;;16.70;98.00;;;;;;5112291;28;20593;-69
2021/07/05 04:39:12;;;;;;;1.20;1.03;;;16.70;98.00;;;;;;5112068;28;20459;-69
2021/07/05 04:41:39;;;;;;;1.20;1.00;;;16.80;98.00;;;;;;5111810;28;21076;-69
2021/07/05 04:44:06;;;;;;;1.20;1.00;;;16.80;98.00;;;;;;5110965;28;21030;-69
2021/07/05 04:46:35;;;;;;;2.37;1.57;;;16.80;98.00;;;;;;5110790;28;21043;-70
2021/07/05 04:49:02;;;;;;;1.30;1.00;;;16.90;98.00;;;;;;5112164;28;20459;-71
2021/07/05 04:51:29;;;;;;;1.30;1.20;;;16.80;98.00;;;;;;5111685;28;20450;-70
2021/07/05 04:53:56;;;;;;;1.20;1.00;;;16.90;98.00;;;;;;5110640;28;20829;-70
2021/07/05 04:56:23;;;;;;;1.30;1.00;;;16.90;98.00;;;;;;5112034;28;20459;-70
2021/07/05 04:58:50;;;;;;;1.30;1.20;;;17.00;98.00;;;;;;5110684;28;20516;-70
2021/07/05 05:01:17;;;;;;;1.20;1.00;;;17.00;98.00;;;;;;5111641;28;20455;-70
2021/07/05 05:03:45;;;;;;;1.20;1.10;;;17.10;98.00;;;;;;5111896;28;20490;-69
2021/07/05 05:06:12;;;;;;;1.20;1.07;;;17.20;98.00;;;;;;5111765;28;20508;-71
2021/07/05 05:08:41;;;;;;;1.20;1.20;;;17.20;98.00;;;;;;5111902;28;20885;-70
2021/07/05 05:11:08;;;;;;;1.20;1.00;;;17.40;98.00;;;;;;5111705;28;20447;-70
2021/07/05 05:13:35;;;;;;;1.20;1.00;;;17.40;98.00;;;;;;5093767;28;20477;-69
2021/07/05 05:16:03;;;;;;;1.20;1.00;;;17.50;98.00;;;;;;5110895;28;20447;-70
2021/07/05 05:18:30;;;;;;;1.20;1.00;;;17.60;98.00;;;;;;5109838;28;20463;-70
2021/07/05 05:20:58;;;;;;;1.20;1.00;;;17.70;98.00;;;;;;5111338;28;20506;-68
2021/07/05 05:23:26;;;;;;;1.20;1.20;;;17.70;98.00;;;;;;5111603;28;20528;-70
2021/07/05 05:25:53;;;;;;;1.20;1.03;;;17.80;98.00;;;;;;5111927;28;20837;-69
2021/07/05 05:28:21;;;;;;;1.20;1.00;;;17.70;98.00;;;;;;5111681;28;20458;-70
2021/07/05 05:30:48;;;;;;;1.20;1.17;;;17.60;98.00;;;;;;5110419;28;21096;-69
2021/07/05 05:33:15;;;;;;;1.33;1.20;;;17.60;98.00;;;;;;5116115;28;20451;-71
2021/07/05 05:35:42;;;;;;;1.20;1.10;;;17.60;98.00;;;;;;5115819;28;20515;-68
2021/07/05 05:38:10;;;;;;;1.37;1.20;;;17.80;98.00;;;;;;5115764;28;20459;-69
2021/07/05 05:40:38;;;;;;;1.23;1.10;;;17.90;98.00;;;;;;5115281;28;20490;-70
2021/07/05 05:43:08;;;;;;;1.20;1.00;;;18.00;98.00;;;;;;5115531;28;20875;-70
2021/07/05 05:45:35;;;;;;;1.40;1.23;;;17.90;98.00;;;;;;5115633;28;20846;-70
2021/07/05 05:48:02;;;;;;;1.40;1.20;;;17.90;98.00;;;;;;5115447;28;20462;-70
2021/07/05 05:50:29;;;;;;;1.30;1.10;;;17.80;98.00;;;;;;5115013;28;20520;-70
2021/07/05 05:52:56;;;;;;;1.30;1.03;;;17.90;98.00;;;;;;5115383;28;20454;-68
2021/07/05 05:55:25;;;;;;;1.20;1.20;;;17.90;98.00;;;;;;5115810;28;20515;-72
2021/07/05 05:57:52;;;;;;;1.20;1.07;;;17.90;98.00;;;;;;5115625;28;20941;-70
2021/07/05 06:00:23;;;;;;;1.83;1.20;;;17.90;98.00;;;;;;5115688;28;20459;-70
2021/07/05 06:02:51;;;;;;;1.20;1.00;;;17.90;98.00;;;;;;5115215;28;20578;-71
2021/07/05 06:05:19;;;;;;;1.20;1.00;;;17.90;98.00;;;;;;5115588;28;20455;-71
2021/07/05 06:07:50;;;;;;;1.30;1.20;;;17.90;98.00;;;;;;5115535;28;20482;-73
2021/07/05 06:10:19;;;;;;;1.30;1.17;;;17.90;98.00;;;;;;5115551;28;20938;-73
2021/07/05 06:12:49;;;;;;;1.20;1.10;;;18.00;98.00;;;;;;5115711;28;20465;-72
2021/07/05 06:15:18;;;;;;;1.23;1.07;;;18.10;98.00;;;;;;5115575;28;21005;-72
2021/07/05 06:17:46;;;;;;;1.20;1.00;;;18.20;98.00;;;;;;5115486;28;20459;-73
2021/07/05 06:20:15;;;;;;;1.30;1.13;;;18.40;98.00;;;;;;5115345;28;20488;-72
2021/07/05 06:22:47;;;;;;;3.20;1.20;;;18.40;98.00;;;;;;5115246;28;20558;-71
2021/07/05 06:25:15;;;;;;;1.50;1.13;;;18.30;98.00;;;;;;5115466;28;20459;-71
2021/07/05 06:27:43;;;;;;;1.77;1.13;;;18.20;98.00;;;;;;5115409;28;20463;-70
2021/07/05 06:30:13;;;;;;;1.20;1.20;;;18.20;98.00;;;;;;5113869;28;20952;-70
2021/07/05 06:32:40;;;;;;;1.20;1.10;;;18.00;98.00;;;;;;5115103;28;20454;-71
2021/07/05 06:35:09;;;;;;;1.20;1.00;;;17.90;98.00;;;;;;5115303;28;20550;-72
2021/07/05 06:37:36;;;;;;;1.30;1.10;;;17.90;98.00;;;;;;5114855;28;20466;-72
2021/07/05 06:40:05;;;;;;;1.20;1.10;;;17.90;98.00;;;;;;5115215;28;21013;-72
2021/07/05 06:42:34;;;;;;;1.50;1.10;;;18.00;98.00;;;;;;5114361;28;20483;-70
2021/07/05 06:45:05;;;;;;;1.83;1.30;;;18.00;98.00;;;;;;5115062;28;20542;-71
2021/07/05 06:47:34;;;;;;;1.40;1.10;;;18.00;98.00;;;;;;5113685;28;20496;-71
2021/07/05 06:50:01;;;;;;;1.20;1.10;;;18.10;98.00;;;;;;5114943;28;20854;-72
2021/07/05 06:52:32;;;;;;;1.20;1.10;;;18.10;98.00;;;;;;5115208;28;20459;-72
2021/07/05 06:54:59;;;;;;;1.50;1.33;;;18.20;98.00;;;;;;5114887;28;20451;-72
2021/07/05 06:57:33;;;;;;;1.20;1.10;;;18.30;98.00;;;;;;5114960;28;20474;-70
2021/07/05 07:00:08;;;;;;;1.30;1.10;;;18.20;98.00;;;;;;5114546;28;20459;-71
2021/07/05 07:02:37;;;;;;;1.20;1.10;;;18.40;98.00;;;;;;5113714;28;20535;-68
2021/07/05 07:05:10;;;;;;;1.30;1.10;;;18.40;98.00;;;;;;5113676;28;21010;-70
2021/07/05 07:07:37;;;;;;;1.20;1.00;;;18.40;98.00;;;;;;5113855;28;20451;-68
2021/07/05 07:10:13;;;;;;;1.20;1.10;;;18.70;98.00;;;;;;5114031;28;20933;-67
2021/07/05 07:12:42;;;;;;;1.20;1.03;;;18.70;98.00;;;;;;5113892;28;20455;-68
2021/07/05 07:15:11;;;;;;;1.63;1.20;;;18.90;98.00;;;;;;5114258;28;20451;-70
2021/07/05 07:17:40;;;;;;;1.43;1.30;;;19.00;98.00;;;;;;5078606;28;20472;-69
2021/07/05 07:20:11;;;;;;;1.20;1.10;;;19.10;98.00;;;;;;5072785;28;20453;-71
2021/07/05 07:22:40;;;;;;;1.53;1.10;;;19.10;98.00;;;;;;5072011;28;20480;-65
2021/07/05 07:25:12;;;;;;;1.20;1.00;;;19.30;98.00;;;;;;5077478;28;20467;-70
2021/07/05 07:27:39;;;;;;;1.40;1.30;;;19.50;98.00;;;;;;5108991;28;20475;-67
2021/07/05 07:30:19;;;;;;;1.20;1.13;;;19.60;98.00;;;;;;5101696;28;20464;-69
2021/07/05 07:32:48;;;;;;;1.20;1.10;;;19.60;98.00;;;;;;5099522;28;20490;-69
2021/07/05 07:35:17;;;;;;;1.30;1.30;;;19.40;98.00;;;;;;5100494;28;20524;-71
2021/07/05 07:37:46;;;;;;;1.20;1.00;;;19.50;98.00;;;;;;5079282;28;20468;-71
2021/07/05 07:40:18;;;;;;;1.20;1.20;;;19.80;98.00;;;;;;5087445;28;20465;-72
2021/07/05 07:42:46;;;;;;;1.20;1.10;;;20.00;98.00;;;;;;5096240;28;20836;-73
2021/07/05 07:45:15;;;;;;;1.20;1.00;;;20.30;98.00;;;;;;5109216;28;21012;-73
2021/07/05 07:47:42;;;;;;;1.20;1.10;;;20.60;98.00;;;;;;5095491;28;20587;-70
2021/07/05 07:50:14;;;;;;;1.30;1.20;;;20.90;98.00;;;;;;5094980;28;20458;-72
2021/07/05 07:52:42;;;;;;;5.23;1.40;;;21.00;98.00;;;;;;5104148;28;20456;-71
2021/07/05 07:55:11;;;;;;;1.20;1.13;;;21.10;98.00;;;;;;5099168;28;20517;-71
2021/07/05 07:57:39;;;;;;;1.20;1.17;;;21.20;98.00;;;;;;5105676;28;20945;-72
2021/07/05 08:00:09;;;;;;;1.20;1.10;;;21.10;98.00;;;;;;5095013;28;20875;-70
2021/07/05 08:02:36;;;;;;;1.20;1.10;;;21.00;98.00;;;;;;5100189;28;20491;-69
2021/07/05 08:05:03;;;;;;;1.30;1.27;;;20.80;98.00;;;;;;5100808;28;20457;-72
2021/07/05 08:07:32;;;;;;;1.30;1.30;;;20.50;98.00;;;;;;5100848;28;20522;-71
2021/07/05 08:10:01;;;;;;;1.40;1.00;;;20.30;98.00;;;;;;5092273;28;20470;-71
2021/07/05 08:12:29;;;;;;;1.60;1.40;;;20.20;98.00;;;;;;5096265;28;20984;-70
2021/07/05 08:14:57;;;;;;;1.30;1.10;;;20.00;98.00;;;;;;5095734;28;20995;-69
2021/07/05 08:17:23;;;;;;;1.53;1.30;;;19.90;98.00;;;;;;5091424;28;20459;-68
2021/07/05 08:19:51;;;;;;;1.20;1.17;;;19.90;98.00;;;;;;5100163;28;20456;-69
2021/07/05 08:22:19;;;;;;;1.20;1.20;;;19.80;98.00;;;;;;5089816;28;20468;-70
2021/07/05 08:24:48;;;;;;;1.23;1.13;;;19.80;98.00;;;;;;5103717;28;20455;-69
2021/07/05 08:27:15;;;;;;;1.20;1.10;;;19.80;98.00;;;;;;5107101;28;20925;-71
2021/07/05 08:29:43;;;;;;;1.20;1.20;;;20.00;98.00;;;;;;5096072;28;20528;-70
2021/07/05 08:32:10;;;;;;;1.20;1.10;;;20.00;98.00;;;;;;5094304;28;20459;-71
2021/07/05 08:34:37;;;;;;;1.20;1.00;;;20.00;98.00;;;;;;5108077;28;20512;-71
2021/07/05 08:37:04;;;;;;;1.20;1.20;;;20.00;98.00;;;;;;5107601;28;20455;-71
2021/07/05 08:39:32;;;;;;;1.30;1.20;;;20.00;98.00;;;;;;5093890;28;20455;-72
2021/07/05 08:42:00;;;;;;;1.20;1.10;;;19.90;98.00;;;;;;5093918;28;20482;-72
2021/07/05 08:44:28;;;;;;;1.20;1.10;;;19.90;98.00;;;;;;5098688;28;21185;-71
2021/07/05 08:46:56;;;;;;;1.20;1.10;;;20.00;98.00;;;;;;5107172;28;20482;-71
2021/07/05 08:49:25;;;;;;;1.20;1.00;;;20.00;98.00;;;;;;5102639;28;20521;-70
2021/07/05 08:51:59;;;;;;;1.20;1.13;;;20.10;98.00;;;;;;5090530;28;20497;-72
2021/07/05 08:54:26;;;;;;;1.20;1.10;;;20.00;98.00;;;;;;5075012;28;20495;-71
2021/07/05 08:56:53;;;;;;;1.20;1.10;;;20.00;98.00;;;;;;5085989;28;20452;-70
2021/07/05 08:59:23;;;;;;;1.20;1.10;;;20.00;98.00;;;;;;5091659;28;20456;-71
2021/07/05 09:01:55;;;;;;;1.30;1.10;;;20.00;98.00;;;;;;5103539;28;20847;-72
2021/07/05 09:04:22;;;;;;;1.53;1.10;;;19.90;98.00;;;;;;5108023;28;20517;-69
2021/07/05 09:07:04;;;;;;;1.20;1.07;;;19.90;98.00;;;;;;5093296;28;20460;-69
2021/07/05 09:09:32;;;;;;;1.30;1.07;;;20.20;98.00;;;;;;5091647;28;20967;-70
2021/07/05 09:12:04;;;;;;;1.43;1.37;;;20.40;98.00;;;;;;5103847;28;20450;-70
2021/07/05 09:14:33;;;;;;;1.20;1.10;;;20.60;98.00;;;;;;5104720;28;20463;-71
2021/07/05 09:17:08;;;;;;;1.20;1.10;;;20.50;98.00;;;;;;5099044;28;20455;-67
2021/07/05 09:19:39;;;;;;;1.20;1.10;;;20.50;98.00;;;;;;5107260;28;20945;-70
2021/07/05 09:22:09;;;;;;;1.20;1.10;;;20.60;98.00;;;;;;5072513;28;20456;-69
2021/07/05 09:24:38;;;;;;;1.20;1.20;;;20.70;98.00;;;;;;5099758;28;20487;-71
2021/07/05 09:27:11;;;;;;;1.40;1.20;;;20.70;98.00;;;;;;5089941;28;20460;-72
2021/07/05 09:29:41;;;;;;;1.20;1.20;;;20.60;98.00;;;;;;5098740;28;20513;-71
2021/07/05 09:32:10;;;;;;;1.20;1.10;;;20.40;98.00;;;;;;5098525;28;20521;-68
2021/07/05 09:34:43;;;;;;;1.20;1.10;;;20.40;98.00;;;;;;5108811;28;20512;-70
2021/07/05 09:37:19;;;;;;;1.20;1.10;;;20.40;98.00;;;;;;5089888;28;20482;-71
2021/07/05 09:40:10;;;;;;;1.20;1.10;;;20.50;98.00;;;;;;5092617;28;20458;-70
2021/07/05 09:42:39;;;;;;;1.20;1.20;;;20.50;98.00;;;;;;5098288;28;20493;-69
2021/07/05 09:45:12;;;;;;;1.20;1.10;;;20.60;98.00;;;;;;5095185;28;20860;-68
2021/07/05 09:47:39;;;;;;;1.20;1.20;;;20.40;98.00;;;;;;5089600;28;20460;-69
2021/07/05 09:50:13;;;;;;;2.33;1.57;;;20.30;98.00;;;;;;5096328;28;20462;-69
2021/07/05 09:52:41;;;;;;;1.20;1.00;;;20.30;98.00;;;;;;5098910;28;20489;-68
2021/07/05 09:55:11;;;;;;;1.77;1.10;;;20.30;98.00;;;;;;5071945;28;20457;-67
2021/07/05 09:57:44;;;;;;;1.20;1.20;;;20.20;98.00;;;;;;5101472;28;20451;-68
2021/07/05 10:00:21;;;;;;;1.20;1.20;;;20.30;98.00;;;;;;5098037;28;20458;-69
2021/07/05 10:02:58;;;;;;;1.20;1.10;;;20.40;98.00;;;;;;5098444;28;20874;-68
2021/07/05 10:05:26;;;;;;;1.20;1.10;;;20.30;98.00;;;;;;5097451;28;20553;-70
2021/07/05 10:08:04;;;;;;;1.20;1.10;;;20.30;98.00;;;;;;5099212;28;20483;-67
2021/07/05 10:10:32;;;;;;;1.30;1.10;;;20.30;98.00;;;;;;5090433;28;20458;-71
2021/07/05 10:13:01;;;;;;;1.20;1.10;;;20.20;98.00;;;;;;5107410;28;20925;-70
2021/07/05 10:15:37;;;;;;;1.20;1.10;;;20.00;98.00;;;;;;5088951;28;20456;-71
2021/07/05 10:18:05;;;;;;;1.20;1.20;;;19.90;98.00;;;;;;5107975;28;20911;-69
2021/07/05 10:20:35;;;;;;;1.20;1.20;;;20.10;98.00;;;;;;5103610;28;21819;-69
2021/07/05 10:23:05;;;;;;;1.20;1.10;;;20.10;98.00;;;;;;5102315;28;20455;-69
2021/07/05 10:25:36;;;;;;;1.20;1.10;;;20.10;98.00;;;;;;5101354;28;20550;-70
2021/07/05 10:28:05;;;;;;;1.20;1.10;;;20.10;98.00;;;;;;5108075;28;20467;-69
2021/07/05 10:30:34;;;;;;;1.30;1.20;;;20.10;98.00;;;;;;5095587;28;20471;-69
2021/07/05 10:33:02;;;;;;;1.20;1.13;;;20.10;98.00;;;;;;5101514;28;20479;-71
2021/07/05 10:35:36;;;;;;;1.20;1.10;;;20.00;98.00;;;;;;5089481;28;20489;-67
2021/07/05 10:38:07;;;;;;;1.30;1.20;;;20.00;98.00;;;;;;5096567;28;20459;-72
2021/07/05 10:40:38;;;;;;;1.33;1.30;;;20.10;98.00;;;;;;5110597;28;20971;-67
2021/07/05 10:43:07;;;;;;;1.20;1.13;;;20.20;98.00;;;;;;5101134;28;20501;-71
2021/07/05 10:45:44;;;;;;;1.20;1.00;;;20.20;98.00;;;;;;5101375;28;20458;-69
2021/07/05 10:48:13;;;;;;;1.30;1.20;;;19.80;98.00;;;;;;5102180;28;20541;-69
2021/07/05 10:50:55;;;;;;;1.30;1.10;;;19.70;98.00;;;;;;5099924;28;20508;-69
2021/07/05 10:53:52;;;;;;;1.53;1.13;;;19.30;98.00;;;;;;5111071;28;20461;-70
2021/07/05 10:56:31;;;;;;;1.20;1.00;;;19.20;98.00;;;;;;5100404;28;20460;-70
2021/07/05 10:59:18;;;;;;;1.20;1.00;;;19.20;98.00;;;;;;5107427;28;20802;-69
2021/07/05 11:01:49;;;;;;;1.20;1.10;;;19.30;98.00;;;;;;5106536;28;20531;-70
2021/07/05 11:04:21;;;;;;;1.20;1.10;;;19.30;98.00;;;;;;5094444;28;20491;-70
2021/07/05 11:06:48;;;;;;;1.20;1.17;;;19.40;98.00;;;;;;5072871;28;20534;-72
2021/07/05 11:09:21;;;;;;;1.20;1.10;;;19.30;98.00;;;;;;5099811;28;20821;-71
2021/07/05 11:11:53;;;;;;;2.00;1.20;;;19.50;98.00;;;;;;5098863;28;20451;-71
2021/07/05 11:14:25;;;;;;;1.20;1.00;;;19.50;98.00;;;;;;5100278;28;20456;-69
2021/07/05 11:17:00;;;;;;;1.70;1.20;;;19.60;98.00;;;;;;5099999;28;20455;-69
2021/07/05 11:19:45;;;;;;;1.20;1.20;;;19.60;98.00;;;;;;5088379;28;20966;-70
2021/07/05 11:22:38;;;;;;;1.20;1.07;;;19.80;98.00;;;;;;5094831;28;20933;-69
2021/07/05 11:25:22;;;;;;;1.20;1.13;;;20.00;98.00;;;;;;5109708;28;20485;-69
2021/07/05 11:27:52;;;;;;;1.20;1.10;;;20.00;98.00;;;;;;5100430;28;20463;-70
2021/07/05 11:30:35;;;;;;;1.20;1.10;;;20.10;98.00;;;;;;5093745;28;20517;-69
2021/07/05 11:33:20;;;;;;;1.67;1.23;;;20.20;98.00;;;;;;5101297;28;20938;-67
2021/07/05 11:35:55;;;;;;;1.20;1.07;;;20.20;98.00;;;;;;5096791;28;20539;-68
2021/07/05 11:38:33;;;;;;;1.20;1.10;;;20.00;98.00;;;;;;5098047;28;20478;-67
2021/07/05 11:41:02;;;;;;;1.20;1.03;;;20.10;98.00;;;;;;5093263;28;20807;-70
2021/07/05 11:43:51;;;;;;;1.20;1.03;;;20.20;98.00;;;;;;5093267;28;20490;-71
2021/07/05 11:46:34;;;;;;;1.20;1.10;;;20.20;98.00;;;;;;5093372;28;20952;-68
2021/07/05 11:49:06;;;;;;;1.40;1.20;;;20.40;98.00;;;;;;5092376;28;20456;-69
2021/07/05 11:51:36;;;;;;;1.20;1.10;;;20.50;98.00;;;;;;5093342;28;20460;-72
2021/07/05 11:54:05;;;;;;;1.20;1.00;;;20.70;98.00;;;;;;5093089;28;20467;-71
2021/07/05 11:56:35;;;;;;;1.20;1.10;;;20.90;98.00;;;;;;5093285;28;20455;-70
2021/07/05 11:59:06;;;;;;;1.30;1.20;;;20.80;98.00;;;;;;5093239;28;20521;-70
2021/07/05 12:01:35;;;;;;;1.20;1.20;;;20.70;98.00;;;;;;5093224;28;20930;-69
2021/07/05 12:04:05;;;;;;;1.23;1.10;;;20.80;98.00;;;;;;5093167;28;20565;-69
2021/07/05 12:06:33;;;;;;;1.63;1.10;;;20.80;98.00;;;;;;5093228;28;20452;-70
2021/07/05 12:09:02;;;;;;;1.53;1.10;;;20.60;98.00;;;;;;5092883;28;20456;-70
2021/07/05 12:11:34;;;;;;;1.20;1.00;;;20.40;98.00;;;;;;5093074;28;20943;-71
2021/07/05 12:14:23;;;;;;;1.20;1.10;;;20.20;98.00;;;;;;5098287;28;20455;-71
2021/07/05 12:16:53;;;;;;;1.60;1.10;;;20.20;98.00;;;;;;5108837;28;20485;-70
2021/07/05 12:19:22;;;;;;;1.60;1.50;;;20.20;98.00;;;;;;5113114;28;20516;-70
2021/07/05 12:21:54;;;;;;;1.30;1.00;;;20.30;98.00;;;;;;5112837;28;20471;-70
2021/07/05 12:24:26;;;;;;;1.30;1.10;;;20.50;98.00;;;;;;5112890;28;20490;-69
2021/07/05 12:26:58;;;;;;;1.40;1.20;;;20.60;98.00;;;;;;5113050;28;20532;-71
2021/07/05 12:29:30;;;;;;;1.50;1.20;;;20.70;98.00;;;;;;5112921;28;20450;-68
2021/07/05 12:32:17;;;;;;;1.20;1.20;;;20.80;98.00;;;;;;5113026;28;20510;-70
2021/07/05 12:34:57;;;;;;;1.20;1.10;;;21.00;98.00;;;;;;5112904;28;20459;-71
2021/07/05 12:37:34;;;;;;;1.83;1.30;;;21.30;98.00;;;;;;5112940;28;20451;-72
2021/07/05 12:40:20;;;;;;;1.20;1.10;;;21.60;98.00;;;;;;5111626;28;20803;-70
2021/07/05 12:42:48;;;;;;;1.20;1.00;;;21.80;98.00;;;;;;5112691;28;20461;-71
2021/07/05 12:45:19;;;;;;;1.20;1.10;;;22.00;98.00;;;;;;5112496;28;20482;-70
2021/07/05 12:47:53;;;;;;;1.30;1.10;;;22.20;98.00;;;;;;5112596;28;20555;-71
2021/07/05 12:50:23;;;;;;;1.20;1.10;;;22.10;98.00;;;;;;5112402;28;20995;-71
2021/07/05 12:53:12;;;;;;;1.40;1.20;;;21.90;98.00;;;;;;5112566;28;20463;-72
2021/07/05 12:55:43;;;;;;;1.50;1.30;;;21.90;98.00;;;;;;5110758;28;20466;-69
2021/07/05 12:58:10;;;;;;;1.43;1.20;;;21.80;98.00;;;;;;5091869;28;20455;-72
2021/07/05 13:00:48;;;;;;;1.20;1.00;;;21.70;98.00;;;;;;5075480;28;20457;-69
2021/07/05 13:03:16;;;;;;;1.20;1.10;;;21.70;98.00;;;;;;5071706;28;20579;-70
2021/07/05 13:05:46;;;;;;;1.40;1.10;;;21.70;98.00;;;;;;5071853;28;20570;-69